Time;durP1;ratioP1;P1;durP2;ratioP2;P2;SDS_P1;SDS_P2;PMS_P1;PMS_P2;Temp;Humidity;BMP_temperature;BMP_pressure;BME280_temperature;BME280_humidity;BME280_pressure;Samples;Min_cycle;Max_cycle;Signal;HPM_P1;HPM_P2
2023/11/03 00:01:13;;;;;;;3.30;1.25;;;;;;;;;;5017269;28;20187;-84
2023/11/03 00:03:58;;;;;;;6.95;1.65;;;;;;;;;;5013298;28;20093;-84
2023/11/03 00:06:43;;;;;;;5.10;1.00;;;;;;;;;;5010069;28;20021;-83
2023/11/03 00:09:32;;;;;;;3.40;1.40;;;;;;;;;;5011710;28;20029;-84
2023/11/03 00:12:18;;;;;;;2.27;1.20;;;;;;;;;;5013664;28;20091;-83
2023/11/03 00:15:04;;;;;;;4.72;2.03;;;;;;;;;;5007509;28;20344;-83
2023/11/03 00:17:49;;;;;;;6.22;2.17;;;;;;;;;;5008784;28;20014;-83
2023/11/03 00:20:34;;;;;;;4.70;1.02;;;;;;;;;;5011024;28;20116;-83
2023/11/03 00:23:19;;;;;;;3.22;1.35;;;;;;;;;;5015068;28;20108;-83
2023/11/03 00:26:07;;;;;;;3.38;1.23;;;;;;;;;;5012824;28;20112;-83
2023/11/03 00:28:53;;;;;;;4.15;1.15;;;;;;;;;;5016258;28;20034;-84
2023/11/03 00:31:45;;;;;;;2.35;0.90;;;;;;;;;;5008441;28;20078;-83
2023/11/03 00:34:30;;;;;;;3.15;1.05;;;;;;;;;;5014518;28;20025;-83
2023/11/03 00:37:15;;;;;;;2.13;1.10;;;;;;;;;;5010888;28;20026;-83
2023/11/03 00:40:02;;;;;;;5.22;1.27;;;;;;;;;;5015590;28;20040;-83
2023/11/03 00:42:47;;;;;;;1.63;0.90;;;;;;;;;;5014628;28;20017;-84
2023/11/03 00:45:32;;;;;;;2.75;1.05;;;;;;;;;;5016079;28;20483;-84
2023/11/03 00:48:18;;;;;;;3.72;0.90;;;;;;;;;;5013254;28;20022;-84
2023/11/03 00:51:03;;;;;;;2.17;0.85;;;;;;;;;;5016888;28;20025;-84
2023/11/03 00:53:49;;;;;;;3.65;1.40;;;;;;;;;;5015268;28;20067;-83
2023/11/03 00:56:35;;;;;;;4.38;0.98;;;;;;;;;;5011912;28;20036;-83
2023/11/03 00:59:20;;;;;;;1.98;0.90;;;;;;;;;;5019245;28;20045;-83
2023/11/03 01:02:05;;;;;;;4.20;0.93;;;;;;;;;;5030918;28;20378;-83
2023/11/03 01:04:51;;;;;;;5.15;1.15;;;;;;;;;;5034557;28;20437;-84
2023/11/03 01:07:38;;;;;;;4.55;1.02;;;;;;;;;;5034784;28;20386;-84
2023/11/03 01:10:23;;;;;;;4.90;2.28;;;;;;;;;;5034112;28;20078;-84
2023/11/03 01:13:10;;;;;;;3.15;1.10;;;;;;;;;;5034723;28;20116;-83
2023/11/03 01:15:55;;;;;;;4.00;1.30;;;;;;;;;;5035196;28;20120;-83
2023/11/03 01:18:41;;;;;;;3.08;1.33;;;;;;;;;;5034723;28;20032;-83
2023/11/03 01:21:28;;;;;;;2.55;1.20;;;;;;;;;;5032901;28;20058;-83
2023/11/03 01:24:13;;;;;;;6.47;1.27;;;;;;;;;;5032487;28;20039;-84
2023/11/03 01:26:59;;;;;;;1.77;1.10;;;;;;;;;;5033992;28;20062;-85
2023/11/03 01:29:44;;;;;;;2.50;0.90;;;;;;;;;;5030179;28;20395;-84
2023/11/03 01:32:30;;;;;;;2.15;1.13;;;;;;;;;;5034755;28;20025;-84
2023/11/03 01:35:15;;;;;;;2.80;1.10;;;;;;;;;;5031374;28;20422;-84
2023/11/03 01:38:01;;;;;;;6.88;1.98;;;;;;;;;;5017704;28;20021;-85
2023/11/03 01:40:46;;;;;;;2.95;0.88;;;;;;;;;;5033324;28;20090;-82
2023/11/03 01:43:31;;;;;;;6.93;1.88;;;;;;;;;;5033181;28;20056;-84
2023/11/03 01:46:17;;;;;;;10.05;1.38;;;;;;;;;;5037405;28;20032;-85
2023/11/03 01:49:03;;;;;;;3.13;1.20;;;;;;;;;;5032463;28;20418;-85
2023/11/03 01:51:48;;;;;;;3.67;1.10;;;;;;;;;;5035068;28;20538;-85
2023/11/03 01:54:33;;;;;;;7.55;1.88;;;;;;;;;;5051216;28;20024;-85
2023/11/03 01:57:19;;;;;;;4.32;1.58;;;;;;;;;;5037496;28;20021;-84
2023/11/03 02:00:05;;;;;;;6.90;1.40;;;;;;;;;;5035041;28;20106;-84
2023/11/03 02:02:52;;;;;;;1.23;0.85;;;;;;;;;;5040656;28;20021;-81
2023/11/03 02:05:38;;;;;;;2.65;1.25;;;;;;;;;;5039556;28;20037;-83
2023/11/03 02:08:23;;;;;;;2.88;1.02;;;;;;;;;;5030422;28;20048;-84
2023/11/03 02:11:08;;;;;;;6.10;1.58;;;;;;;;;;5031834;28;20029;-85
2023/11/03 02:13:54;;;;;;;6.35;1.45;;;;;;;;;;5030314;28;20034;-83
2023/11/03 02:16:40;;;;;;;5.03;1.38;;;;;;;;;;5035756;28;20110;-84
2023/11/03 02:19:26;;;;;;;3.25;1.15;;;;;;;;;;5035390;28;20090;-82
2023/11/03 02:22:11;;;;;;;2.53;1.10;;;;;;;;;;5032036;28;20025;-83
2023/11/03 02:24:57;;;;;;;2.60;1.15;;;;;;;;;;5034732;28;20029;-82
2023/11/03 02:27:42;;;;;;;5.10;1.15;;;;;;;;;;5025972;28;20032;-83
2023/11/03 02:30:27;;;;;;;5.22;1.23;;;;;;;;;;5034710;28;20060;-82
2023/11/03 02:33:13;;;;;;;6.80;1.48;;;;;;;;;;5031880;28;20094;-83
2023/11/03 02:35:58;;;;;;;4.47;1.40;;;;;;;;;;5032756;28;20071;-82
2023/11/03 02:38:43;;;;;;;2.78;1.40;;;;;;;;;;5031470;28;20032;-82
2023/11/03 02:41:32;;;;;;;6.32;1.65;;;;;;;;;;5036177;28;20433;-82
2023/11/03 02:44:17;;;;;;;7.85;1.35;;;;;;;;;;5028853;28;20033;-82
2023/11/03 02:47:02;;;;;;;2.25;1.08;;;;;;;;;;5035774;28;20033;-83
2023/11/03 02:49:48;;;;;;;3.65;1.13;;;;;;;;;;5029233;28;20437;-83
2023/11/03 02:52:33;;;;;;;4.45;1.63;;;;;;;;;;5028084;28;20430;-82
2023/11/03 02:55:18;;;;;;;9.95;1.70;;;;;;;;;;5034493;28;20063;-84
2023/11/03 02:58:04;;;;;;;4.43;1.50;;;;;;;;;;5032730;28;20090;-84
2023/11/03 03:00:49;;;;;;;2.33;0.90;;;;;;;;;;5030134;28;20029;-84
2023/11/03 03:03:35;;;;;;;4.45;1.25;;;;;;;;;;5035736;28;20033;-84
2023/11/03 03:06:20;;;;;;;8.75;1.52;;;;;;;;;;5032147;28;20068;-83
2023/11/03 03:09:05;;;;;;;2.20;1.10;;;;;;;;;;5034168;28;20049;-84
2023/11/03 03:11:51;;;;;;;2.78;1.63;;;;;;;;;;5034734;28;20083;-83
2023/11/03 03:14:37;;;;;;;5.47;1.77;;;;;;;;;;5031168;28;20032;-84
2023/11/03 03:17:22;;;;;;;3.90;1.00;;;;;;;;;;5031668;28;20025;-84
2023/11/03 03:20:07;;;;;;;1.63;1.08;;;;;;;;;;5032709;28;20040;-83
2023/11/03 03:22:53;;;;;;;6.47;1.30;;;;;;;;;;5034603;28;20029;-83
2023/11/03 03:25:38;;;;;;;4.88;1.20;;;;;;;;;;5035379;28;20025;-84
2023/11/03 03:28:23;;;;;;;4.32;1.00;;;;;;;;;;5032026;28;20371;-83
2023/11/03 03:31:09;;;;;;;4.55;1.17;;;;;;;;;;5033871;28;20025;-83
2023/11/03 03:33:55;;;;;;;5.15;1.08;;;;;;;;;;5033185;28;20033;-82
2023/11/03 03:36:40;;;;;;;5.78;1.25;;;;;;;;;;5035146;28;20107;-82
2023/11/03 03:39:25;;;;;;;5.70;1.60;;;;;;;;;;5032673;28;20055;-83
2023/11/03 03:42:10;;;;;;;7.18;1.48;;;;;;;;;;5032669;28;20091;-82
2023/11/03 03:44:56;;;;;;;5.70;1.15;;;;;;;;;;5028624;28;20474;-82
2023/11/03 03:47:41;;;;;;;4.13;0.82;;;;;;;;;;5030758;28;20027;-82
2023/11/03 03:50:26;;;;;;;3.75;1.20;;;;;;;;;;5032949;28;20482;-82
2023/11/03 03:53:11;;;;;;;5.07;1.15;;;;;;;;;;5019069;28;20029;-83
2023/11/03 03:55:57;;;;;;;4.47;1.52;;;;;;;;;;5034620;28;20102;-83
2023/11/03 03:58:42;;;;;;;2.67;1.27;;;;;;;;;;5025535;28;20038;-82
2023/11/03 04:01:27;;;;;;;1.63;1.25;;;;;;;;;;5011623;28;20029;-84
2023/11/03 04:04:12;;;;;;;4.38;1.30;;;;;;;;;;5009011;28;20538;-83
2023/11/03 04:06:58;;;;;;;11.02;1.70;;;;;;;;;;5017050;28;20089;-79
2023/11/03 04:09:43;;;;;;;8.80;1.30;;;;;;;;;;5024515;28;20052;-84
2023/11/03 04:12:28;;;;;;;5.85;1.58;;;;;;;;;;5023247;28;20051;-85
2023/11/03 04:15:13;;;;;;;2.08;1.02;;;;;;;;;;5027581;28;20025;-83
2023/11/03 04:17:58;;;;;;;9.27;2.67;;;;;;;;;;5031108;28;20029;-84
2023/11/03 04:20:44;;;;;;;3.67;1.00;;;;;;;;;;5029120;28;20304;-83
2023/11/03 04:23:29;;;;;;;11.43;1.60;;;;;;;;;;5008039;28;20091;-82
2023/11/03 04:26:14;;;;;;;3.95;1.15;;;;;;;;;;5010426;28;20033;-83
2023/11/03 04:28:59;;;;;;;2.13;0.98;;;;;;;;;;5010241;28;20024;-83
2023/11/03 04:31:45;;;;;;;7.80;1.50;;;;;;;;;;5009757;28;20033;-83
2023/11/03 04:34:30;;;;;;;4.88;1.20;;;;;;;;;;5014991;28;20052;-84
2023/11/03 04:37:15;;;;;;;4.50;1.40;;;;;;;;;;5007508;28;20045;-84
2023/11/03 04:40:02;;;;;;;5.25;1.50;;;;;;;;;;5013627;28;20093;-84
2023/11/03 04:42:47;;;;;;;3.58;1.35;;;;;;;;;;5005274;28;20044;-84
2023/11/03 04:45:32;;;;;;;3.20;1.10;;;;;;;;;;5011523;28;20119;-84
2023/11/03 04:48:18;;;;;;;3.05;1.33;;;;;;;;;;5014443;28;20112;-84
2023/11/03 04:51:03;;;;;;;5.05;1.63;;;;;;;;;;5011938;28;20025;-82
2023/11/03 04:53:49;;;;;;;2.53;1.05;;;;;;;;;;5013283;28;20472;-83
2023/11/03 04:56:34;;;;;;;6.32;2.03;;;;;;;;;;5013723;28;20228;-81
2023/11/03 04:59:20;;;;;;;4.60;1.40;;;;;;;;;;5014531;28;20376;-83
2023/11/03 05:02:06;;;;;;;4.97;1.30;;;;;;;;;;5028017;28;20045;-83
2023/11/03 05:04:51;;;;;;;2.75;1.20;;;;;;;;;;5031699;28;20111;-83
2023/11/03 05:07:40;;;;;;;3.88;1.65;;;;;;;;;;5033562;28;20032;-83
2023/11/03 05:10:25;;;;;;;4.85;1.45;;;;;;;;;;5036008;28;20043;-84
2023/11/03 05:13:10;;;;;;;5.35;2.10;;;;;;;;;;5033116;28;20029;-81
2023/11/03 05:15:56;;;;;;;7.18;2.55;;;;;;;;;;5032667;28;20034;-83
2023/11/03 05:18:41;;;;;;;2.45;1.48;;;;;;;;;;5029753;28;20036;-83
2023/11/03 05:21:27;;;;;;;4.82;1.70;;;;;;;;;;5032266;28;20395;-82
2023/11/03 05:24:13;;;;;;;4.03;2.28;;;;;;;;;;5029290;28;20060;-83
2023/11/03 05:26:58;;;;;;;4.47;1.63;;;;;;;;;;5030906;28;20039;-83
2023/11/03 05:29:44;;;;;;;6.32;2.08;;;;;;;;;;5031757;28;20036;-83
2023/11/03 05:32:29;;;;;;;7.78;2.40;;;;;;;;;;5031480;28;20029;-83
2023/11/03 05:35:14;;;;;;;4.55;2.15;;;;;;;;;;5047838;28;20033;-83
2023/11/03 05:38:00;;;;;;;3.80;1.70;;;;;;;;;;5031576;28;20029;-84
2023/11/03 05:40:45;;;;;;;4.00;1.35;;;;;;;;;;5031287;28;20025;-84
2023/11/03 05:43:30;;;;;;;3.83;1.38;;;;;;;;;;5033306;28;20074;-85
2023/11/03 05:46:16;;;;;;;3.50;1.90;;;;;;;;;;5034019;28;21192;-82
2023/11/03 05:49:01;;;;;;;2.72;1.58;;;;;;;;;;5030436;28;20028;-83
2023/11/03 05:51:46;;;;;;;6.38;1.63;;;;;;;;;;5033743;28;20103;-81
2023/11/03 05:54:31;;;;;;;4.15;1.98;;;;;;;;;;5036063;28;20039;-82
2023/11/03 05:57:17;;;;;;;4.70;3.05;;;;;;;;;;5034962;28;20028;-82
2023/11/03 06:00:08;;;;;;;7.57;1.88;;;;;;;;;;5016573;28;20057;-82
2023/11/03 06:02:55;;;;;;;4.68;1.63;;;;;;;;;;5012624;28;20030;-82
2023/11/03 06:05:40;;;;;;;3.55;1.67;;;;;;;;;;5007884;28;20032;-85
2023/11/03 06:08:26;;;;;;;4.47;1.20;;;;;;;;;;4997738;28;20040;-86
2023/11/03 06:11:11;;;;;;;9.52;1.55;;;;;;;;;;5013076;28;20574;-86
2023/11/03 06:13:57;;;;;;;10.00;1.65;;;;;;;;;;5016255;28;20021;-86
2023/11/03 06:16:42;;;;;;;6.22;2.08;;;;;;;;;;5013422;28;20037;-86
2023/11/03 06:19:27;;;;;;;2.90;1.20;;;;;;;;;;5013627;28;20033;-82
2023/11/03 06:22:13;;;;;;;3.95;1.17;;;;;;;;;;5009607;28;20030;-82
2023/11/03 06:24:59;;;;;;;6.57;2.22;;;;;;;;;;5008650;28;20034;-82
2023/11/03 06:27:44;;;;;;;4.68;1.45;;;;;;;;;;5008514;28;20120;-80
2023/11/03 06:30:29;;;;;;;8.68;1.77;;;;;;;;;;5013741;28;20037;-79
2023/11/03 06:33:15;;;;;;;5.38;1.60;;;;;;;;;;5013183;28;20044;-82
2023/11/03 06:36:00;;;;;;;9.32;1.65;;;;;;;;;;5012266;28;20029;-84
2023/11/03 06:38:45;;;;;;;3.88;1.20;;;;;;;;;;5016708;28;20041;-84
2023/11/03 06:41:30;;;;;;;7.90;2.22;;;;;;;;;;5014290;28;20441;-80
2023/11/03 06:44:16;;;;;;;9.50;2.13;;;;;;;;;;5013953;28;20021;-81
2023/11/03 06:47:01;;;;;;;4.57;1.45;;;;;;;;;;5019760;28;20075;-84
2023/11/03 06:49:46;;;;;;;3.47;1.52;;;;;;;;;;5012499;28;20702;-84
2023/11/03 06:52:56;;;;;;;4.18;1.83;;;;;;;;;;5008958;28;20057;-86
2023/11/03 06:55:41;;;;;;;3.97;1.75;;;;;;;;;;5014774;28;20057;-86
2023/11/03 06:58:26;;;;;;;3.47;1.35;;;;;;;;;;5008000;28;20434;-87
2023/11/03 07:01:11;;;;;;;5.15;1.08;;;;;;;;;;5016982;28;20091;-86
2023/11/03 07:03:57;;;;;;;5.43;1.27;;;;;;;;;;5016914;28;20025;-85
2023/11/03 07:06:42;;;;;;;3.63;1.52;;;;;;;;;;5015574;28;20487;-86
2023/11/03 07:09:28;;;;;;;6.78;1.85;;;;;;;;;;5015291;28;20105;-85
2023/11/03 07:12:13;;;;;;;6.97;1.42;;;;;;;;;;5017010;28;20025;-87
2023/11/03 07:14:59;;;;;;;3.13;1.58;;;;;;;;;;5016316;28;20037;-86
2023/11/03 07:17:44;;;;;;;4.10;1.23;;;;;;;;;;5017617;28;20026;-85
2023/11/03 07:20:30;;;;;;;5.32;1.98;;;;;;;;;;5013250;28;20083;-86
2023/11/03 07:23:17;;;;;;;3.72;1.17;;;;;;;;;;5015853;28;20025;-87
2023/11/03 07:26:02;;;;;;;3.53;1.23;;;;;;;;;;5008784;28;20080;-86
2023/11/03 07:28:47;;;;;;;4.00;1.38;;;;;;;;;;5016210;28;20013;-88
2023/11/03 07:31:32;;;;;;;7.53;1.98;;;;;;;;;;5015540;28;20042;-85
2023/11/03 07:34:18;;;;;;;7.70;1.50;;;;;;;;;;5014921;28;20451;-85
2023/11/03 07:37:04;;;;;;;3.97;1.75;;;;;;;;;;5016046;28;20094;-87
2023/11/03 07:39:49;;;;;;;4.10;1.35;;;;;;;;;;5016153;28;20048;-86
2023/11/03 07:42:35;;;;;;;10.18;1.65;;;;;;;;;;5029645;28;20029;-85
2023/11/03 07:45:23;;;;;;;3.97;1.40;;;;;;;;;;5016528;28;20033;-85
2023/11/03 07:48:08;;;;;;;5.53;1.80;;;;;;;;;;5014815;28;20038;-87
2023/11/03 07:50:53;;;;;;;7.32;2.15;;;;;;;;;;5002028;28;20037;-86
2023/11/03 07:53:39;;;;;;;7.47;2.85;;;;;;;;;;5015423;28;20030;-89
2023/11/03 07:56:24;;;;;;;5.72;1.90;;;;;;;;;;5010270;28;20072;-82
2023/11/03 07:59:10;;;;;;;11.55;2.03;;;;;;;;;;5022118;28;20490;-84
2023/11/03 08:01:56;;;;;;;5.72;2.42;;;;;;;;;;5040884;28;20033;-83
2023/11/03 08:04:42;;;;;;;9.50;2.22;;;;;;;;;;5034384;28;20094;-83
2023/11/03 08:07:28;;;;;;;4.38;1.45;;;;;;;;;;5033670;28;20511;-83
2023/11/03 08:10:13;;;;;;;4.30;1.38;;;;;;;;;;5035443;28;20009;-84
2023/11/03 08:12:58;;;;;;;4.55;1.27;;;;;;;;;;5035847;28;20620;-84
2023/11/03 08:15:44;;;;;;;4.40;1.48;;;;;;;;;;5020630;28;20028;-83
2023/11/03 08:18:30;;;;;;;7.53;1.60;;;;;;;;;;5035544;28;20371;-84
2023/11/03 08:21:15;;;;;;;5.40;1.67;;;;;;;;;;5034571;28;20036;-85
2023/11/03 08:24:00;;;;;;;3.42;1.33;;;;;;;;;;5034759;28;20024;-84
2023/11/03 08:26:45;;;;;;;3.95;1.67;;;;;;;;;;5033045;28;20030;-84
2023/11/03 08:29:33;;;;;;;6.15;1.70;;;;;;;;;;5034765;28;20229;-84
2023/11/03 08:32:22;;;;;;;5.57;1.85;;;;;;;;;;5029593;28;20029;-84
2023/11/03 08:35:10;;;;;;;3.83;1.50;;;;;;;;;;5033205;28;20064;-83
2023/11/03 08:37:55;;;;;;;6.18;1.40;;;;;;;;;;5033744;28;20390;-83
2023/11/03 08:40:40;;;;;;;3.67;1.60;;;;;;;;;;5032475;28;20438;-81
2023/11/03 08:43:25;;;;;;;5.38;1.50;;;;;;;;;;5033364;28;20383;-81
2023/11/03 08:46:12;;;;;;;6.38;1.52;;;;;;;;;;5034362;28;20103;-82
2023/11/03 08:48:59;;;;;;;3.03;1.40;;;;;;;;;;5033966;28;20181;-81
2023/11/03 08:51:44;;;;;;;4.72;1.40;;;;;;;;;;5031478;28;20028;-83
2023/11/03 08:54:29;;;;;;;3.65;1.42;;;;;;;;;;5030230;28;20029;-83
2023/11/03 08:57:15;;;;;;;5.57;1.88;;;;;;;;;;5034253;28;20029;-83
2023/11/03 09:00:01;;;;;;;3.40;1.45;;;;;;;;;;5032467;28;20450;-83
2023/11/03 09:02:46;;;;;;;3.97;1.70;;;;;;;;;;5029942;28;20696;-82
2023/11/03 09:05:31;;;;;;;5.47;1.20;;;;;;;;;;5032652;28;20498;-83
2023/11/03 09:08:17;;;;;;;3.08;1.17;;;;;;;;;;5029963;28;20112;-83
2023/11/03 09:11:02;;;;;;;4.53;1.58;;;;;;;;;;5031052;28;20083;-84
2023/11/03 09:13:49;;;;;;;5.93;1.70;;;;;;;;;;5033095;28;20506;-83
2023/11/03 09:16:35;;;;;;;6.53;1.42;;;;;;;;;;5034112;28;20044;-84
2023/11/03 09:19:20;;;;;;;3.75;1.58;;;;;;;;;;5032780;28;20526;-84
2023/11/03 09:22:05;;;;;;;5.32;1.98;;;;;;;;;;5033814;28;20531;-83
2023/11/03 09:24:54;;;;;;;3.08;1.30;;;;;;;;;;5015927;28;20112;-84
2023/11/03 09:27:40;;;;;;;2.93;1.07;;;;;;;;;;5033961;28;20091;-83
2023/11/03 09:30:25;;;;;;;3.33;1.10;;;;;;;;;;5030136;28;20100;-85
2023/11/03 09:33:11;;;;;;;4.15;1.83;;;;;;;;;;5034412;28;20029;-83
2023/11/03 09:35:56;;;;;;;4.65;1.45;;;;;;;;;;5032382;28;20666;-85
2023/11/03 09:38:42;;;;;;;5.95;1.45;;;;;;;;;;5032437;28;20033;-84
2023/11/03 09:41:29;;;;;;;3.00;1.00;;;;;;;;;;5044605;28;20033;-84
2023/11/03 09:44:14;;;;;;;3.75;1.05;;;;;;;;;;5042848;28;20033;-83
2023/11/03 09:47:03;;;;;;;2.78;0.90;;;;;;;;;;5042455;28;20025;-83
2023/11/03 09:49:48;;;;;;;4.13;1.77;;;;;;;;;;5040254;28;20044;-83
2023/11/03 09:52:38;;;;;;;3.50;1.45;;;;;;;;;;5040177;28;20083;-83
2023/11/03 09:55:23;;;;;;;1.65;1.00;;;;;;;;;;5038981;28;20033;-83
2023/11/03 09:58:09;;;;;;;4.43;1.20;;;;;;;;;;5041486;28;20051;-82
2023/11/03 10:00:54;;;;;;;3.88;1.10;;;;;;;;;;5040062;28;20045;-84
2023/11/03 10:03:39;;;;;;;3.15;1.00;;;;;;;;;;5043057;28;20013;-86
2023/11/03 10:06:25;;;;;;;3.08;1.38;;;;;;;;;;5049316;28;20051;-81
2023/11/03 10:09:16;;;;;;;4.07;1.25;;;;;;;;;;5030903;28;20090;-83
2023/11/03 10:12:03;;;;;;;2.83;1.33;;;;;;;;;;5034713;28;20106;-83
2023/11/03 10:14:48;;;;;;;2.10;1.00;;;;;;;;;;5036282;28;20112;-84
2023/11/03 10:17:35;;;;;;;4.80;1.30;;;;;;;;;;5036164;28;20025;-83
2023/11/03 10:20:22;;;;;;;1.52;1.05;;;;;;;;;;5042869;28;20029;-83
2023/11/03 10:23:07;;;;;;;3.17;1.40;;;;;;;;;;5034507;28;20352;-83
2023/11/03 10:25:52;;;;;;;1.70;1.05;;;;;;;;;;5034483;28;20285;-84
2023/11/03 10:28:37;;;;;;;2.92;1.33;;;;;;;;;;5034231;28;20020;-84
2023/11/03 10:31:25;;;;;;;1.92;0.85;;;;;;;;;;5032671;28;20032;-83
2023/11/03 10:34:11;;;;;;;7.43;1.30;;;;;;;;;;5030447;28;20033;-82
2023/11/03 10:36:57;;;;;;;1.45;0.75;;;;;;;;;;5020203;28;20039;-81
2023/11/03 10:39:43;;;;;;;2.42;0.90;;;;;;;;;;5033943;28;20526;-82
2023/11/03 10:42:29;;;;;;;1.42;1.00;;;;;;;;;;5030755;28;20025;-82
2023/11/03 10:45:15;;;;;;;2.28;1.10;;;;;;;;;;5030815;28;20454;-81
2023/11/03 10:48:04;;;;;;;3.20;1.20;;;;;;;;;;5033398;28;20109;-80
2023/11/03 10:51:19;;;;;;;3.47;1.15;;;;;;;;;;5031289;28;20071;-81
2023/11/03 10:54:05;;;;;;;2.38;1.00;;;;;;;;;;5027290;28;20127;-81
2023/11/03 10:56:50;;;;;;;3.25;1.00;;;;;;;;;;5036410;28;20078;-80
2023/11/03 10:59:35;;;;;;;3.30;1.23;;;;;;;;;;4995827;28;1084852;-80
2023/11/03 11:02:27;;;;;;;1.05;0.90;;;;;;;;;;5033273;28;20073;-81
2023/11/03 11:05:16;;;;;;;2.53;1.00;;;;;;;;;;5034563;28;20024;-81
2023/11/03 11:08:04;;;;;;;1.42;0.82;;;;;;;;;;5033551;28;20063;-81
2023/11/03 11:10:50;;;;;;;3.83;0.98;;;;;;;;;;5032365;28;20068;-82
2023/11/03 11:13:38;;;;;;;2.05;0.80;;;;;;;;;;5035431;28;20207;-80
2023/11/03 11:16:24;;;;;;;2.97;1.30;;;;;;;;;;5033417;28;20090;-80
2023/11/03 11:19:10;;;;;;;1.60;1.05;;;;;;;;;;5033778;28;20028;-82
2023/11/03 11:21:57;;;;;;;2.47;0.90;;;;;;;;;;5032307;28;20072;-78
2023/11/03 11:24:44;;;;;;;1.73;0.80;;;;;;;;;;5033484;28;20087;-81
2023/11/03 11:27:29;;;;;;;2.80;0.90;;;;;;;;;;5042184;28;20031;-81
2023/11/03 11:30:15;;;;;;;1.13;0.60;;;;;;;;;;5044138;28;20028;-81
2023/11/03 11:33:00;;;;;;;2.92;0.70;;;;;;;;;;5031718;28;20017;-80
2023/11/03 11:35:46;;;;;;;1.90;0.70;;;;;;;;;;5034626;28;20471;-81
2023/11/03 11:38:31;;;;;;;2.45;0.85;;;;;;;;;;5033027;28;20442;-81
2023/11/03 11:41:18;;;;;;;0.60;0.60;;;;;;;;;;5033637;28;20025;-80
2023/11/03 11:44:04;;;;;;;1.48;0.80;;;;;;;;;;5047059;28;20108;-79
2023/11/03 11:46:57;;;;;;;1.30;0.70;;;;;;;;;;5029074;28;20544;-80
2023/11/03 11:49:42;;;;;;;1.08;0.60;;;;;;;;;;5039285;28;20037;-79
2023/11/03 11:52:28;;;;;;;1.38;0.70;;;;;;;;;;5039804;28;20027;-79
2023/11/03 11:55:13;;;;;;;2.55;0.73;;;;;;;;;;5032627;28;20051;-80
2023/11/03 11:57:59;;;;;;;2.58;1.05;;;;;;;;;;5033562;28;20021;-80
2023/11/03 12:00:44;;;;;;;2.45;1.20;;;;;;;;;;5031224;28;20048;-79
2023/11/03 12:03:29;;;;;;;1.77;1.08;;;;;;;;;;5033410;28;20098;-79
2023/11/03 12:06:15;;;;;;;2.95;1.20;;;;;;;;;;5034454;28;20029;-77
2023/11/03 12:09:00;;;;;;;3.90;0.70;;;;;;;;;;5023395;28;20017;-81
2023/11/03 12:11:46;;;;;;;1.60;0.88;;;;;;;;;;5031164;28;20025;-80
2023/11/03 12:14:31;;;;;;;1.38;0.60;;;;;;;;;;5030507;28;20028;-79
2023/11/03 12:17:19;;;;;;;1.33;0.75;;;;;;;;;;5030366;28;20021;-81
2023/11/03 12:20:12;;;;;;;1.02;0.68;;;;;;;;;;5032950;28;20017;-80
2023/11/03 12:22:57;;;;;;;0.70;0.60;;;;;;;;;;5034540;28;20025;-81
2023/11/03 12:25:43;;;;;;;1.85;0.80;;;;;;;;;;5015934;28;20033;-82
2023/11/03 12:28:31;;;;;;;1.10;0.60;;;;;;;;;;5033871;28;20017;-81
2023/11/03 12:31:17;;;;;;;1.77;0.70;;;;;;;;;;5033457;28;20029;-80
2023/11/03 12:34:03;;;;;;;1.67;0.93;;;;;;;;;;5020921;28;20093;-82
2023/11/03 12:36:48;;;;;;;1.67;1.02;;;;;;;;;;5033531;28;20033;-83
2023/11/03 12:39:47;;;;;;;1.50;0.82;;;;;;;;;;5031053;28;20112;-88
2023/11/03 12:42:40;;;;;;;1.00;0.70;;;;;;;;;;5034800;28;20075;-85
2023/11/03 12:45:26;;;;;;;0.95;0.80;;;;;;;;;;5030259;28;20028;-85
2023/11/03 12:48:21;;;;;;;2.38;0.70;;;;;;;;;;5033377;28;20386;-85
2023/11/03 12:51:11;;;;;;;1.58;0.60;;;;;;;;;;5033841;28;20059;-87
2023/11/03 12:53:56;;;;;;;0.95;0.60;;;;;;;;;;5033173;28;20135;-84
2023/11/03 12:56:43;;;;;;;0.70;0.70;;;;;;;;;;5040212;28;20037;-84
2023/11/03 12:59:29;;;;;;;1.85;0.75;;;;;;;;;;5030010;28;20033;-83
2023/11/03 13:02:14;;;;;;;0.60;0.60;;;;;;;;;;5031286;28;20492;-84
2023/11/03 13:05:03;;;;;;;0.85;0.65;;;;;;;;;;5034047;28;20033;-84
2023/11/03 13:07:50;;;;;;;0.90;0.80;;;;;;;;;;5031880;28;20017;-84
2023/11/03 13:10:38;;;;;;;2.55;0.60;;;;;;;;;;5034008;28;20163;-84
2023/11/03 13:13:23;;;;;;;1.63;0.90;;;;;;;;;;5031684;28;20056;-83
2023/11/03 13:16:09;;;;;;;1.30;1.00;;;;;;;;;;5030625;28;20059;-83
2023/11/03 13:18:54;;;;;;;1.58;1.05;;;;;;;;;;5031900;28;20025;-82
2023/11/03 13:21:39;;;;;;;1.17;0.80;;;;;;;;;;5031931;28;20117;-84
2023/11/03 13:24:25;;;;;;;0.68;0.52;;;;;;;;;;5030922;28;20028;-84
2023/11/03 13:27:10;;;;;;;1.73;0.68;;;;;;;;;;5037393;28;20056;-84
2023/11/03 13:29:58;;;;;;;2.20;0.82;;;;;;;;;;5028001;28;20067;-84
2023/11/03 13:32:50;;;;;;;2.13;0.97;;;;;;;;;;5032115;28;20087;-84
2023/11/03 13:35:39;;;;;;;1.90;0.80;;;;;;;;;;5032373;28;20205;-84
2023/11/03 13:38:24;;;;;;;1.50;0.73;;;;;;;;;;5031661;28;20040;-83
2023/11/03 13:41:10;;;;;;;1.83;1.35;;;;;;;;;;5037210;28;20064;-83
2023/11/03 13:43:56;;;;;;;1.55;1.00;;;;;;;;;;5037641;28;20032;-83
2023/11/03 13:46:41;;;;;;;1.63;0.90;;;;;;;;;;5025727;28;20432;-83
2023/11/03 13:49:27;;;;;;;3.03;1.33;;;;;;;;;;5035193;28;20418;-83
2023/11/03 13:52:12;;;;;;;2.78;1.58;;;;;;;;;;5035798;28;20025;-84
2023/11/03 13:54:58;;;;;;;5.20;0.98;;;;;;;;;;5035840;28;20048;-84
2023/11/03 13:57:43;;;;;;;2.08;1.00;;;;;;;;;;5035217;28;20021;-83
2023/11/03 14:00:28;;;;;;;1.48;0.60;;;;;;;;;;5036779;28;20444;-84
2023/11/03 14:03:13;;;;;;;2.95;0.68;;;;;;;;;;5036039;28;20100;-85
2023/11/03 14:05:59;;;;;;;1.58;0.80;;;;;;;;;;5036808;28;20025;-85
2023/11/03 14:08:45;;;;;;;1.92;1.05;;;;;;;;;;5035655;28;20025;-84
2023/11/03 14:11:30;;;;;;;1.58;0.80;;;;;;;;;;5036044;28;20044;-85
2023/11/03 14:14:16;;;;;;;1.88;0.70;;;;;;;;;;5036970;28;20166;-84
2023/11/03 14:17:03;;;;;;;2.05;1.17;;;;;;;;;;5035820;28;20063;-83
2023/11/03 14:19:49;;;;;;;2.90;1.50;;;;;;;;;;5035481;28;20082;-83
2023/11/03 14:22:34;;;;;;;3.10;0.90;;;;;;;;;;5030039;28;20125;-83
2023/11/03 14:25:19;;;;;;;2.42;0.93;;;;;;;;;;5037022;28;20012;-83
2023/11/03 14:28:04;;;;;;;2.00;1.30;;;;;;;;;;5041285;28;20059;-85
2023/11/03 14:30:50;;;;;;;3.17;1.10;;;;;;;;;;5035428;28;20068;-86
2023/11/03 14:33:36;;;;;;;1.17;0.70;;;;;;;;;;5035458;28;20071;-84
2023/11/03 14:36:21;;;;;;;0.50;0.50;;;;;;;;;;5036426;28;20043;-84
2023/11/03 14:39:08;;;;;;;3.40;0.75;;;;;;;;;;5033767;28;20028;-84
2023/11/03 14:41:54;;;;;;;3.13;0.95;;;;;;;;;;5032462;28;20083;-85
2023/11/03 14:44:39;;;;;;;2.47;1.30;;;;;;;;;;5035341;28;20120;-85
2023/11/03 14:47:25;;;;;;;3.47;0.93;;;;;;;;;;5033879;28;20036;-83
2023/11/03 14:50:11;;;;;;;1.77;0.95;;;;;;;;;;5034951;28;20033;-85
2023/11/03 14:52:56;;;;;;;3.30;1.13;;;;;;;;;;5036080;28;20090;-85
2023/11/03 14:55:42;;;;;;;1.85;0.75;;;;;;;;;;5046654;28;20017;-84
2023/11/03 14:58:27;;;;;;;1.17;0.65;;;;;;;;;;5032568;28;20056;-86
2023/11/03 15:01:15;;;;;;;1.73;1.10;;;;;;;;;;5015517;28;20041;-85
2023/11/03 15:04:04;;;;;;;2.00;1.00;;;;;;;;;;5015153;28;20033;-83
2023/11/03 15:06:49;;;;;;;3.23;1.10;;;;;;;;;;5015908;28;20113;-84
2023/11/03 15:09:35;;;;;;;2.00;1.15;;;;;;;;;;5014087;28;20037;-84
2023/11/03 15:12:22;;;;;;;1.33;0.80;;;;;;;;;;5015813;28;20480;-87
2023/11/03 15:15:08;;;;;;;3.15;1.20;;;;;;;;;;5017228;28;20043;-84
2023/11/03 15:17:54;;;;;;;4.22;0.95;;;;;;;;;;5013453;28;20032;-86
2023/11/03 15:20:39;;;;;;;5.10;1.10;;;;;;;;;;5015248;28;20029;-85
2023/11/03 15:23:24;;;;;;;4.07;1.10;;;;;;;;;;5011041;28;20067;-85
2023/11/03 15:26:11;;;;;;;1.65;1.10;;;;;;;;;;5006425;28;20033;-85
2023/11/03 15:28:56;;;;;;;2.53;1.38;;;;;;;;;;5018217;28;20072;-83
2023/11/03 15:31:42;;;;;;;4.15;1.52;;;;;;;;;;5011019;28;20025;-83
2023/11/03 15:34:28;;;;;;;1.75;1.10;;;;;;;;;;5013625;28;20107;-85
2023/11/03 15:37:13;;;;;;;1.67;1.00;;;;;;;;;;5015292;28;20030;-86
2023/11/03 15:39:58;;;;;;;3.67;1.55;;;;;;;;;;5017426;28;20480;-87
2023/11/03 15:42:43;;;;;;;2.88;1.50;;;;;;;;;;5015738;28;20025;-87
2023/11/03 15:45:29;;;;;;;2.35;1.23;;;;;;;;;;5056093;22;20029;-84
2023/11/03 15:48:14;;;;;;;3.63;1.33;;;;;;;;;;5017101;28;20048;-85
2023/11/03 15:50:59;;;;;;;4.50;1.23;;;;;;;;;;5013799;28;20475;-86
2023/11/03 15:53:47;;;;;;;4.38;1.65;;;;;;;;;;5015475;28;20463;-86
2023/11/03 15:56:32;;;;;;;4.78;1.92;;;;;;;;;;5012990;28;20448;-86
2023/11/03 15:59:18;;;;;;;6.30;1.45;;;;;;;;;;5014625;28;20104;-84
2023/11/03 16:02:03;;;;;;;1.15;0.82;;;;;;;;;;5012810;28;20122;-84
2023/11/03 16:04:48;;;;;;;4.00;1.23;;;;;;;;;;5013937;28;20116;-81
2023/11/03 16:07:34;;;;;;;4.50;1.67;;;;;;;;;;5013772;28;20044;-82
2023/11/03 16:10:19;;;;;;;5.60;1.50;;;;;;;;;;5013994;28;20506;-84
2023/11/03 16:13:04;;;;;;;2.63;1.20;;;;;;;;;;5013264;28;20029;-83
2023/11/03 16:15:49;;;;;;;3.00;1.30;;;;;;;;;;5013960;28;20013;-83
2023/11/03 16:18:35;;;;;;;2.33;1.30;;;;;;;;;;5008584;28;20032;-84
2023/11/03 16:21:20;;;;;;;2.83;1.58;;;;;;;;;;5010930;28;20021;-83
2023/11/03 16:24:06;;;;;;;6.15;1.85;;;;;;;;;;5013277;28;20021;-83
2023/11/03 16:26:51;;;;;;;3.15;1.40;;;;;;;;;;5014044;28;20057;-83
2023/11/03 16:29:37;;;;;;;4.15;1.20;;;;;;;;;;5012142;28;20621;-84
2023/11/03 16:32:23;;;;;;;2.40;1.20;;;;;;;;;;5016533;28;20017;-84
2023/11/03 16:35:12;;;;;;;5.82;1.60;;;;;;;;;;5011356;28;20301;-83